createdAt,value
2018-12-12T00:00:08.907Z,9.27
2018-12-12T00:02:39.812Z,9.60
2018-12-12T00:05:10.393Z,10.30
2018-12-12T00:07:40.827Z,9.10
2018-12-12T00:10:15.607Z,8.10
2018-12-12T00:12:46.039Z,8.90
2018-12-12T00:15:18.307Z,6.40
2018-12-12T00:17:51.368Z,6.43
2018-12-12T00:20:23.802Z,6.13
2018-12-12T00:22:55.058Z,4.80
2018-12-12T00:25:24.661Z,4.90
2018-12-12T00:27:55.747Z,4.50
2018-12-12T00:30:25.883Z,4.13
2018-12-12T00:32:56.923Z,5.70
2018-12-12T00:35:26.943Z,4.30
2018-12-12T00:37:57.795Z,4.27
2018-12-12T00:40:27.815Z,2.93
2018-12-12T00:42:59.064Z,3.17
2018-12-12T00:45:29.975Z,3.50
2018-12-12T00:47:59.893Z,2.53
2018-12-12T00:50:30.763Z,2.30
2018-12-12T00:53:00.999Z,2.40
2018-12-12T00:55:32.031Z,1.87
2018-12-12T00:58:02.115Z,2.50
2018-12-12T01:00:32.983Z,1.90
2018-12-12T01:03:04.260Z,2.10
2018-12-12T01:05:33.994Z,1.90
2018-12-12T01:08:05.129Z,2.27
2018-12-12T01:10:39.914Z,2.17
2018-12-12T01:13:12.008Z,1.97
2018-12-12T01:15:41.546Z,2.03
2018-12-12T01:18:13.898Z,1.63
2018-12-12T01:20:44.742Z,1.40
2018-12-12T01:23:14.986Z,1.70
2018-12-12T01:25:45.000Z,1.10
2018-12-12T01:28:14.626Z,1.07
2018-12-12T01:30:45.097Z,1.20
2018-12-12T01:33:15.060Z,1.40
2018-12-12T01:35:45.385Z,1.40
2018-12-12T01:38:16.143Z,1.10
2018-12-12T01:40:48.211Z,2.00
2018-12-12T01:43:20.270Z,1.30
2018-12-12T01:45:50.926Z,1.60
2018-12-12T01:48:21.343Z,1.30
2018-12-12T01:50:51.128Z,1.57
2018-12-12T01:53:22.411Z,1.57
2018-12-12T01:55:53.108Z,1.40
2018-12-12T01:58:23.353Z,1.57
2018-12-12T02:00:54.310Z,1.47
2018-12-12T02:03:24.395Z,1.40
2018-12-12T02:05:54.402Z,1.77
2018-12-12T02:08:26.275Z,1.23
2018-12-12T02:10:56.648Z,1.63
2018-12-12T02:13:35.148Z,1.70
2018-12-12T02:16:08.207Z,1.80
2018-12-12T02:18:41.346Z,1.60
2018-12-12T02:21:11.312Z,2.30
2018-12-12T02:23:41.351Z,2.27
2018-12-12T02:26:12.342Z,2.00
2018-12-12T02:28:41.902Z,2.17
2018-12-12T02:31:14.380Z,1.93
2018-12-12T02:33:45.503Z,1.90
2018-12-12T02:36:15.346Z,2.20
2018-12-12T02:38:47.359Z,2.20
2018-12-12T02:41:17.433Z,3.10
2018-12-12T02:43:47.522Z,3.73
2018-12-12T02:46:18.463Z,2.67
2018-12-12T02:48:50.544Z,3.13
2018-12-12T02:51:22.587Z,2.50
2018-12-12T02:53:53.268Z,3.30
2018-12-12T02:56:23.477Z,3.03
2018-12-12T02:58:53.503Z,3.30
2018-12-12T03:01:24.913Z,2.80
2018-12-12T03:03:55.567Z,2.90
2018-12-12T03:06:26.644Z,3.53
2018-12-12T03:08:56.856Z,3.07
2018-12-12T03:11:27.312Z,3.50
2018-12-12T03:13:58.036Z,3.83
2018-12-12T03:16:28.487Z,3.57
2018-12-12T03:18:58.718Z,3.23
2018-12-12T03:21:29.930Z,3.60
2018-12-12T03:24:00.372Z,3.20
2018-12-12T03:26:30.565Z,3.77
2018-12-12T03:29:01.567Z,4.20
2018-12-12T03:31:32.400Z,4.13
2018-12-12T03:34:02.786Z,3.67
2018-12-12T03:36:33.873Z,3.60
2018-12-12T03:39:07.254Z,3.30
2018-12-12T03:41:38.791Z,3.73
2018-12-12T03:44:09.832Z,4.20
2018-12-12T03:46:39.894Z,3.80
2018-12-12T03:49:11.637Z,4.30
2018-12-12T03:51:41.615Z,4.33
2018-12-12T03:54:13.523Z,5.30
2018-12-12T03:56:44.825Z,4.30
2018-12-12T03:59:16.853Z,4.80
2018-12-12T04:01:47.985Z,6.37
2018-12-12T04:04:17.663Z,4.67
2018-12-12T04:06:47.691Z,4.50
2018-12-12T04:09:18.795Z,4.00
2018-12-12T04:11:48.857Z,4.37
2018-12-12T04:14:19.835Z,4.70
2018-12-12T04:16:51.085Z,4.07
2018-12-12T04:19:22.010Z,4.27
2018-12-12T04:21:53.072Z,4.03
2018-12-12T04:24:26.686Z,4.77
2018-12-12T04:26:58.758Z,3.93
2018-12-12T04:29:28.973Z,3.03
2018-12-12T04:32:00.005Z,3.60
2018-12-12T04:34:31.236Z,3.77
2018-12-12T04:37:01.893Z,3.40
2018-12-12T04:39:37.304Z,3.73
2018-12-12T04:42:11.873Z,3.90
2018-12-12T04:44:41.531Z,3.40
2018-12-12T04:47:13.966Z,3.60
2018-12-12T04:49:45.124Z,3.13
2018-12-12T04:52:14.963Z,2.67
2018-12-12T04:54:45.193Z,3.33
2018-12-12T04:57:15.984Z,2.80
2018-12-12T04:59:48.301Z,2.80
2018-12-12T05:02:22.119Z,3.50
2018-12-12T05:04:52.620Z,2.57
2018-12-12T05:07:22.147Z,3.00
2018-12-12T05:09:53.043Z,2.57
2018-12-12T05:12:23.058Z,2.80
2018-12-12T05:14:54.163Z,2.33
2018-12-12T05:17:26.051Z,2.50
2018-12-12T05:19:58.023Z,2.50
2018-12-12T05:22:29.069Z,3.73
2018-12-12T05:25:01.799Z,3.10
2018-12-12T05:27:33.149Z,3.70
2018-12-12T05:30:04.203Z,2.93
2018-12-12T05:32:34.336Z,4.10
2018-12-12T05:35:04.686Z,3.90
2018-12-12T05:37:35.216Z,4.63
2018-12-12T05:40:06.788Z,3.27
2018-12-12T05:42:37.200Z,4.00
2018-12-12T05:45:07.416Z,4.53
2018-12-12T05:47:38.147Z,4.80
2018-12-12T05:50:09.322Z,5.13
2018-12-12T05:52:39.769Z,6.03
2018-12-12T05:55:11.784Z,5.33
2018-12-12T05:57:41.394Z,5.30
2018-12-12T06:00:14.057Z,4.50
2018-12-12T06:02:46.230Z,5.13
2018-12-12T06:05:16.286Z,7.37
2018-12-12T06:07:47.336Z,6.20
2018-12-12T06:10:18.510Z,6.00
2018-12-12T06:12:49.309Z,6.63
2018-12-12T06:15:19.405Z,7.83
2018-12-12T06:17:50.341Z,7.53
2018-12-12T06:20:20.329Z,6.70
2018-12-12T06:22:51.587Z,6.00
2018-12-12T06:25:21.420Z,6.47
2018-12-12T06:27:52.450Z,6.33
2018-12-12T06:30:23.100Z,6.47
2018-12-12T06:32:54.560Z,5.83
2018-12-12T06:35:26.380Z,6.00
2018-12-12T06:37:58.643Z,5.72
2018-12-12T06:40:28.460Z,5.90
2018-12-12T06:42:58.400Z,4.93
2018-12-12T06:45:29.483Z,4.47
2018-12-12T06:48:01.481Z,4.07
2018-12-12T06:50:30.976Z,4.50
2018-12-12T06:53:01.485Z,4.00
2018-12-12T06:55:32.455Z,3.37
2018-12-12T06:58:02.353Z,4.93
2018-12-12T07:00:33.552Z,4.23
2018-12-12T07:03:04.625Z,6.23
2018-12-12T07:05:35.399Z,5.53
2018-12-12T07:08:09.132Z,5.80
2018-12-12T07:10:39.571Z,6.73
2018-12-12T07:13:09.563Z,5.20
2018-12-12T07:15:41.683Z,5.83
2018-12-12T07:18:14.458Z,5.70
2018-12-12T07:20:45.624Z,4.97
2018-12-12T07:23:22.702Z,6.37
2018-12-12T07:25:52.719Z,7.00
2018-12-12T07:28:23.728Z,5.33
2018-12-12T07:30:54.660Z,5.87
2018-12-12T07:33:24.643Z,5.73
2018-12-12T07:35:59.506Z,5.23
2018-12-12T07:38:28.622Z,5.03
2018-12-12T07:40:59.782Z,5.30
2018-12-12T07:43:29.721Z,6.17
2018-12-12T07:46:00.579Z,5.63
2018-12-12T07:48:31.671Z,5.73
2018-12-12T07:51:01.820Z,5.10
2018-12-12T07:53:32.902Z,5.97
2018-12-12T07:56:02.696Z,5.33
2018-12-12T07:58:32.904Z,5.70
2018-12-12T08:01:04.895Z,5.00
2018-12-12T08:03:34.766Z,5.13
2018-12-12T08:06:05.837Z,6.73
2018-12-12T08:08:36.739Z,6.70
2018-12-12T08:11:07.971Z,4.83
2018-12-12T08:13:38.863Z,5.87
2018-12-12T08:16:09.574Z,5.50
2018-12-12T08:18:40.177Z,5.93
2018-12-12T08:23:49.169Z,5.03
2018-12-12T08:26:20.980Z,5.30
2018-12-12T08:28:52.775Z,5.70
2018-12-12T08:31:22.594Z,4.40
2018-12-12T08:33:52.754Z,4.67
2018-12-12T08:36:23.137Z,5.10
2018-12-12T08:38:53.761Z,4.20
2018-12-12T08:41:24.771Z,4.37
2018-12-12T08:43:55.021Z,4.70
2018-12-12T08:46:25.027Z,4.50
2018-12-12T08:48:56.078Z,4.67
2018-12-12T08:51:27.028Z,5.50
2018-12-12T08:53:56.964Z,5.30
2018-12-12T08:56:27.939Z,4.30
2018-12-12T08:58:58.575Z,4.53
2018-12-12T09:01:29.166Z,4.00
2018-12-12T09:03:59.924Z,4.43
2018-12-12T09:06:30.128Z,3.43
2018-12-12T09:09:00.925Z,7.13
2018-12-12T09:11:32.098Z,4.03
2018-12-12T09:14:02.996Z,3.50
2018-12-12T09:16:33.183Z,3.63
2018-12-12T09:19:04.248Z,5.33
2018-12-12T09:21:35.846Z,2.83
2018-12-12T09:24:08.945Z,2.90
2018-12-12T09:26:40.098Z,3.03
2018-12-12T09:29:10.397Z,3.90
2018-12-12T09:31:40.864Z,4.90
2018-12-12T09:34:12.294Z,4.27
2018-12-12T09:36:42.008Z,3.87
2018-12-12T09:39:13.394Z,3.87
2018-12-12T09:41:42.967Z,4.27
2018-12-12T09:44:14.239Z,3.43
2018-12-12T09:46:46.279Z,3.73
2018-12-12T09:49:18.295Z,2.93
2018-12-12T09:51:49.341Z,3.83
2018-12-12T09:54:20.191Z,4.23
2018-12-12T09:56:51.284Z,4.20
2018-12-12T09:59:21.310Z,4.07
2018-12-12T10:01:51.288Z,5.00
2018-12-12T10:04:23.651Z,3.37
2018-12-12T10:06:53.284Z,3.30
2018-12-12T10:09:24.316Z,2.77
2018-12-12T10:11:54.317Z,3.53
2018-12-12T10:14:25.456Z,3.60
2018-12-12T10:16:56.394Z,4.43
2018-12-12T10:19:26.388Z,3.97
2018-12-12T10:21:57.567Z,4.93
2018-12-12T10:24:29.724Z,13.30
2018-12-12T10:27:00.373Z,7.77
2018-12-12T10:29:32.520Z,5.73
2018-12-12T10:32:02.535Z,4.53
2018-12-12T10:34:33.409Z,10.97
2018-12-12T10:37:04.822Z,4.17
2018-12-12T10:39:34.336Z,7.00
2018-12-12T10:42:11.520Z,3.77
2018-12-12T10:44:42.073Z,4.40
2018-12-12T10:47:12.600Z,3.53
2018-12-12T10:52:31.048Z,2.97
2018-12-12T10:55:02.477Z,2.70
2018-12-12T10:57:36.480Z,3.17
2018-12-12T11:00:12.743Z,3.57
2018-12-12T11:02:46.137Z,3.23
2018-12-12T11:05:16.731Z,3.93
2018-12-12T11:07:47.851Z,3.77
2018-12-12T11:10:18.372Z,3.97
2018-12-12T11:12:48.870Z,3.70
2018-12-12T11:15:20.016Z,3.53
2018-12-12T11:17:50.478Z,4.50
2018-12-12T11:20:20.795Z,4.60
2018-12-12T11:22:51.736Z,4.90
2018-12-12T11:25:22.759Z,5.93
2018-12-12T11:27:53.384Z,5.33
2018-12-12T11:30:24.488Z,4.37
2018-12-12T11:32:54.871Z,3.73
2018-12-12T11:35:25.703Z,4.47
2018-12-12T11:37:56.697Z,4.10
2018-12-12T11:40:26.749Z,5.90
2018-12-12T11:43:03.539Z,3.87
2018-12-12T11:45:34.781Z,3.73
2018-12-12T11:48:05.843Z,4.30
2018-12-12T11:50:36.027Z,4.20
2018-12-12T11:53:06.712Z,4.20
2018-12-12T11:55:36.839Z,4.40
2018-12-12T11:58:07.889Z,3.80
2018-12-12T12:00:37.932Z,4.07
2018-12-12T12:03:08.897Z,3.93
2018-12-12T12:05:42.497Z,3.30
2018-12-12T12:08:19.283Z,5.00
2018-12-12T12:10:48.806Z,4.27
2018-12-12T12:13:20.587Z,3.40
2018-12-12T12:15:51.108Z,3.80
2018-12-12T12:18:21.739Z,3.50
2018-12-12T12:20:52.123Z,3.87
2018-12-12T12:23:22.992Z,3.23
2018-12-12T12:25:53.725Z,3.03
2018-12-12T12:28:23.956Z,3.40
2018-12-12T12:30:55.064Z,3.03
2018-12-12T12:33:26.173Z,4.20
2018-12-12T12:35:56.659Z,3.40
2018-12-12T12:38:27.195Z,3.77
2018-12-12T12:40:58.015Z,3.13
2018-12-12T12:43:29.004Z,3.27
2018-12-12T12:46:02.757Z,2.93
2018-12-12T12:48:34.193Z,4.93
2018-12-12T12:51:04.031Z,4.13
2018-12-12T12:53:35.056Z,6.83
2018-12-12T12:56:06.211Z,4.10
2018-12-12T12:58:36.148Z,8.97
2018-12-12T13:01:06.998Z,6.50
2018-12-12T13:03:37.038Z,9.60
2018-12-12T13:06:08.187Z,15.87
2018-12-12T13:08:38.682Z,5.00
2018-12-12T13:11:14.672Z,4.77
2018-12-12T13:13:42.303Z,5.20
2018-12-12T13:16:13.240Z,4.67
2018-12-12T13:18:42.801Z,5.17
2018-12-12T13:21:15.236Z,4.50
2018-12-12T13:23:46.339Z,4.90
2018-12-12T13:26:17.134Z,6.07
2018-12-12T13:28:49.218Z,5.00
2018-12-12T13:31:21.293Z,4.70
2018-12-12T13:33:52.553Z,5.57
2018-12-12T13:36:22.076Z,6.23
2018-12-12T13:38:52.255Z,5.27
2018-12-12T13:41:23.214Z,5.33
2018-12-12T13:43:54.502Z,6.23
2018-12-12T13:46:25.159Z,6.10
2018-12-12T13:48:56.589Z,6.80
2018-12-12T13:51:26.223Z,5.50
2018-12-12T13:54:03.310Z,5.90
2018-12-12T13:56:34.610Z,5.40
2018-12-12T13:59:05.363Z,6.57
2018-12-12T14:01:35.468Z,5.23
2018-12-12T14:04:06.507Z,3.50
2018-12-12T14:06:37.033Z,3.53
2018-12-12T14:09:07.994Z,3.20
2018-12-12T14:11:38.295Z,3.03
2018-12-12T14:14:08.362Z,3.63
2018-12-12T14:16:39.471Z,4.93
2018-12-12T14:19:10.044Z,4.20
2018-12-12T14:21:40.459Z,4.90
2018-12-12T14:24:11.124Z,5.23
2018-12-12T14:26:41.653Z,4.70
2018-12-12T14:29:12.189Z,5.50
2018-12-12T14:31:42.681Z,4.23
2018-12-12T14:34:13.393Z,4.17
2018-12-12T14:36:42.965Z,4.37
2018-12-12T14:39:14.387Z,4.30
2018-12-12T14:41:45.345Z,4.87
2018-12-12T14:44:15.737Z,4.90
2018-12-12T14:46:45.601Z,5.00
2018-12-12T14:49:17.179Z,5.03
2018-12-12T14:51:47.745Z,5.17
2018-12-12T14:54:17.957Z,6.33
2018-12-12T14:56:48.502Z,6.00
2018-12-12T14:59:19.747Z,5.00
2018-12-12T15:01:50.866Z,4.70
2018-12-12T15:04:21.845Z,5.60
2018-12-12T15:06:51.681Z,4.90
2018-12-12T15:09:23.181Z,6.13
2018-12-12T15:11:52.717Z,6.50
2018-12-12T15:14:23.928Z,5.60
2018-12-12T15:16:54.263Z,7.07
2018-12-12T15:19:30.533Z,5.67
2018-12-12T15:22:03.425Z,5.47
2018-12-12T15:24:35.587Z,7.40
2018-12-12T15:27:06.714Z,5.77
2018-12-12T15:29:39.632Z,7.10
2018-12-12T15:32:09.939Z,6.50
2018-12-12T15:34:42.523Z,7.10
2018-12-12T15:37:13.607Z,6.40
2018-12-12T15:39:43.172Z,5.63
2018-12-12T15:42:14.840Z,6.07
2018-12-12T15:44:45.160Z,7.33
2018-12-12T15:47:16.115Z,6.80
2018-12-12T15:49:45.715Z,7.30
2018-12-12T15:52:16.986Z,7.17
2018-12-12T15:54:47.908Z,7.30
2018-12-12T15:57:18.510Z,7.20
2018-12-12T15:59:48.813Z,6.37
2018-12-12T16:02:20.088Z,5.13
2018-12-12T16:04:51.957Z,6.20
2018-12-12T16:07:28.705Z,5.30
2018-12-12T16:09:59.015Z,6.33
2018-12-12T16:12:29.901Z,6.00
2018-12-12T16:15:00.949Z,10.23
2018-12-12T16:17:30.859Z,10.73
2018-12-12T16:20:02.081Z,7.70
2018-12-12T16:22:33.199Z,7.80
2018-12-12T16:25:03.754Z,7.80
2018-12-12T16:27:34.067Z,7.90
2018-12-12T16:30:06.862Z,8.87
2018-12-12T16:32:38.027Z,7.37
2018-12-12T16:35:08.138Z,6.80
2018-12-12T16:37:39.192Z,7.43
2018-12-12T16:40:09.024Z,10.00
2018-12-12T16:42:40.098Z,7.10
2018-12-12T16:45:10.127Z,9.07
2018-12-12T16:47:41.135Z,6.60
2018-12-12T16:50:11.547Z,9.40
2018-12-12T16:52:41.188Z,7.43
2018-12-12T16:55:13.039Z,9.40
2018-12-12T16:57:42.684Z,9.77
2018-12-12T17:00:14.282Z,10.37
2018-12-12T17:02:46.251Z,9.23
2018-12-12T17:05:18.223Z,8.37
2018-12-12T17:07:49.178Z,8.50
2018-12-12T17:10:19.038Z,7.60
2018-12-12T17:12:49.443Z,11.20
2018-12-12T17:15:20.296Z,12.43
2018-12-12T17:17:52.128Z,8.67
2018-12-12T17:20:24.449Z,8.70
2018-12-12T17:22:55.296Z,8.97
2018-12-12T17:25:26.195Z,8.27
2018-12-12T17:27:57.167Z,15.53
2018-12-12T17:30:27.813Z,14.17
2018-12-12T17:32:57.921Z,11.43
2018-12-12T17:35:28.384Z,12.30
2018-12-12T17:37:59.502Z,12.23
2018-12-12T17:40:30.456Z,9.03
2018-12-12T17:43:00.536Z,9.53
2018-12-12T17:45:31.366Z,11.63
2018-12-12T17:48:01.631Z,10.93
2018-12-12T17:50:32.298Z,8.80
2018-12-12T17:53:02.521Z,10.43
2018-12-12T17:55:33.207Z,11.87
2018-12-12T17:58:03.419Z,10.70
2018-12-12T18:00:34.067Z,10.33
2018-12-12T18:03:04.613Z,10.00
2018-12-12T18:05:35.071Z,10.97
2018-12-12T18:08:05.530Z,11.30
2018-12-12T18:10:36.395Z,15.03
2018-12-12T18:13:12.440Z,12.90
2018-12-12T18:15:42.885Z,13.63
2018-12-12T18:18:14.598Z,11.27
2018-12-12T18:20:46.480Z,12.33
2018-12-12T18:23:18.522Z,10.27
2018-12-12T18:25:51.166Z,11.30
2018-12-12T18:28:22.768Z,10.77
2018-12-12T18:30:52.442Z,9.10
2018-12-12T18:33:22.290Z,12.47
2018-12-12T18:35:52.818Z,12.00
2018-12-12T18:38:23.535Z,13.73
2018-12-12T18:40:53.552Z,13.87
2018-12-12T18:43:23.664Z,14.40
2018-12-12T18:45:56.060Z,12.27
2018-12-12T18:48:27.656Z,13.77
2018-12-12T18:50:57.810Z,11.50
2018-12-12T18:53:29.822Z,15.90
2018-12-12T18:56:01.814Z,16.13
2018-12-12T18:58:33.817Z,19.27
2018-12-12T19:01:06.074Z,16.83
2018-12-12T19:03:35.568Z,13.07
2018-12-12T19:06:07.323Z,14.70
2018-12-12T19:08:37.847Z,14.97
2018-12-12T19:11:07.798Z,12.17
2018-12-12T19:13:38.842Z,15.70
2018-12-12T19:16:09.365Z,15.43
2018-12-12T19:18:39.674Z,16.93
2018-12-12T19:21:10.516Z,15.30
2018-12-12T19:23:41.132Z,18.43
2018-12-12T19:26:11.551Z,16.37
2018-12-12T19:28:42.520Z,17.20
2018-12-12T19:31:12.703Z,17.07
2018-12-12T19:33:42.885Z,17.57
2018-12-12T19:36:14.014Z,18.63
2018-12-12T19:38:43.621Z,18.47
2018-12-12T19:41:14.937Z,19.13
2018-12-12T19:43:46.176Z,19.67
2018-12-12T19:46:16.668Z,20.27
2018-12-12T19:48:46.804Z,22.20
2018-12-12T19:51:17.983Z,24.43
2018-12-12T19:53:48.940Z,25.10
2018-12-12T19:56:19.786Z,27.57
2018-12-12T19:58:50.011Z,24.73
2018-12-12T20:01:21.060Z,28.20
2018-12-12T20:03:51.901Z,25.07
2018-12-12T20:06:21.887Z,24.33
2018-12-12T20:08:52.752Z,27.20
2018-12-12T20:11:23.504Z,28.23
2018-12-12T20:13:53.202Z,27.73
2018-12-12T20:16:24.011Z,29.00
2018-12-12T20:18:54.721Z,26.57
2018-12-12T20:21:25.200Z,28.60
2018-12-12T20:23:55.672Z,26.53
2018-12-12T20:26:26.019Z,27.47
2018-12-12T20:28:56.064Z,27.00
2018-12-12T20:31:27.432Z,32.80
2018-12-12T20:33:57.903Z,32.50
2018-12-12T20:36:28.120Z,32.83
2018-12-12T20:38:59.111Z,28.63
2018-12-12T20:41:29.896Z,32.40
2018-12-12T20:44:00.229Z,29.33
2018-12-12T20:46:31.523Z,31.10
2018-12-12T20:49:01.924Z,31.20
2018-12-12T20:51:32.379Z,28.57
2018-12-12T20:54:03.159Z,30.03
2018-12-12T20:56:34.020Z,32.60
2018-12-12T20:59:04.338Z,32.50
2018-12-12T21:01:35.296Z,30.93
2018-12-12T21:04:06.187Z,33.83
2018-12-12T21:06:36.931Z,34.40
2018-12-12T21:09:07.682Z,35.20
2018-12-12T21:11:38.205Z,32.87
2018-12-12T21:14:09.388Z,37.27
2018-12-12T21:16:39.940Z,31.50
2018-12-12T21:19:10.505Z,37.30
2018-12-12T21:21:41.138Z,38.03
2018-12-12T21:24:11.551Z,40.73
2018-12-12T21:26:42.260Z,38.47
2018-12-12T21:29:12.738Z,41.27
2018-12-12T21:31:43.194Z,37.20
2018-12-12T21:34:14.113Z,32.97
2018-12-12T21:36:43.649Z,37.70
2018-12-12T21:39:15.217Z,35.50
2018-12-12T21:41:45.985Z,42.00
2018-12-12T21:44:16.331Z,40.83
2018-12-12T21:46:46.604Z,39.67
2018-12-12T21:49:17.479Z,38.20
2018-12-12T21:51:48.530Z,34.10
2018-12-12T21:54:19.261Z,37.30
2018-12-12T21:56:49.582Z,40.40
2018-12-12T21:59:20.371Z,39.50
2018-12-12T22:01:51.359Z,41.30
2018-12-12T22:04:22.174Z,39.80
2018-12-12T22:06:52.436Z,35.67
2018-12-12T22:09:28.595Z,40.23
2018-12-12T22:12:00.469Z,38.20
2018-12-12T22:14:31.500Z,43.30
2018-12-12T22:17:02.505Z,41.63
2018-12-12T22:19:32.584Z,39.93
2018-12-12T22:22:03.432Z,35.80
2018-12-12T22:24:34.369Z,36.93
2018-12-12T22:27:05.644Z,39.73
2018-12-12T22:29:35.899Z,39.67
2018-12-12T22:32:05.640Z,40.77
2018-12-12T22:34:36.655Z,41.10
2018-12-12T22:37:06.798Z,46.53
2018-12-12T22:39:37.506Z,41.10
2018-12-12T22:42:09.673Z,47.87
2018-12-12T22:44:41.570Z,49.33
2018-12-12T22:47:12.600Z,46.77
2018-12-12T22:49:42.576Z,39.47
2018-12-12T22:52:14.916Z,46.37
2018-12-12T22:54:49.475Z,44.87
2018-12-12T22:57:20.660Z,46.53
2018-12-12T22:59:52.560Z,47.83
2018-12-12T23:02:22.654Z,42.30
2018-12-12T23:04:52.688Z,40.30
2018-12-12T23:07:23.814Z,50.87
2018-12-12T23:09:54.831Z,43.60
2018-12-12T23:12:25.573Z,43.60
2018-12-12T23:14:55.766Z,45.47
2018-12-12T23:17:26.829Z,42.80
2018-12-12T23:19:56.782Z,46.83
2018-12-12T23:22:28.737Z,44.87
2018-12-12T23:24:59.504Z,49.23
2018-12-12T23:27:29.871Z,49.10
2018-12-12T23:30:00.004Z,47.33
2018-12-12T23:32:30.819Z,47.90
2018-12-12T23:35:01.880Z,50.60
2018-12-12T23:37:32.229Z,53.50
2018-12-12T23:40:02.785Z,52.57
2018-12-12T23:42:37.223Z,52.43
2018-12-12T23:45:07.084Z,51.00
2018-12-12T23:47:38.001Z,52.10
2018-12-12T23:50:09.073Z,54.03
2018-12-12T23:52:38.973Z,49.90
2018-12-12T23:55:09.991Z,53.80
2018-12-12T23:57:40.041Z,54.10
